createdAt,value
2023-05-19T00:02:00.868Z,95866.53
2023-05-19T00:04:28.000Z,95866.00
2023-05-19T00:06:57.525Z,95860.03
2023-05-19T00:09:24.206Z,95857.06
2023-05-19T00:11:51.147Z,95856.81
2023-05-19T00:14:18.140Z,95848.94
2023-05-19T00:16:44.952Z,95847.56
2023-05-19T00:19:11.645Z,95852.75
2023-05-19T00:21:39.531Z,95850.00
2023-05-19T00:24:06.919Z,95845.69
2023-05-19T00:26:33.281Z,95850.28
2023-05-19T00:28:59.578Z,95841.34
2023-05-19T00:31:26.013Z,95845.16
2023-05-19T00:33:52.531Z,95847.31
2023-05-19T00:36:18.895Z,95841.88
2023-05-19T00:38:45.236Z,95838.91
2023-05-19T00:41:20.323Z,95833.78
2023-05-19T00:43:46.681Z,95829.16
2023-05-19T00:46:13.133Z,95834.84
2023-05-19T00:48:39.578Z,95830.25
2023-05-19T00:51:06.179Z,95831.84
2023-05-19T00:53:35.410Z,95828.88
2023-05-19T00:56:03.404Z,95831.31
2023-05-19T00:58:31.942Z,95821.03
2023-05-19T01:01:02.685Z,95831.31
2023-05-19T01:03:30.914Z,95829.69
2023-05-19T01:06:01.022Z,95827.53
2023-05-19T01:08:28.105Z,95824.81
2023-05-19T01:10:54.599Z,95824.00
2023-05-19T01:13:23.864Z,95819.41
2023-05-19T01:16:00.696Z,95834.31
2023-05-19T01:18:36.922Z,95826.72
2023-05-19T01:21:23.499Z,95821.28
2023-05-19T01:23:59.532Z,95819.16
2023-05-19T01:26:56.679Z,95828.63
2023-05-19T01:29:35.374Z,95822.38
2023-05-19T01:32:06.396Z,95825.34
2023-05-19T01:34:38.527Z,95827.78
2023-05-19T01:37:05.217Z,95828.06
2023-05-19T01:39:32.942Z,95825.88
2023-05-19T01:42:00.874Z,95824.00
2023-05-19T01:44:28.441Z,95835.66
2023-05-19T01:46:55.485Z,95834.03
2023-05-19T01:49:22.499Z,95827.28
2023-05-19T01:51:49.096Z,95827.25
2023-05-19T01:54:15.433Z,95825.91
2023-05-19T01:56:57.069Z,95828.88
2023-05-19T01:59:33.529Z,95827.25
2023-05-19T02:02:06.699Z,95827.53
2023-05-19T02:04:42.958Z,95831.03
2023-05-19T02:07:14.908Z,95830.50
2023-05-19T02:10:07.641Z,95825.34
2023-05-19T02:12:36.855Z,95827.25
2023-05-19T02:15:07.264Z,95818.84
2023-05-19T02:17:39.398Z,95822.09
2023-05-19T02:20:09.174Z,95815.31
2023-05-19T02:22:35.759Z,95819.41
2023-05-19T02:25:02.471Z,95816.69
2023-05-19T02:27:29.269Z,95815.59
2023-05-19T02:29:55.821Z,95815.31
2023-05-19T02:32:22.176Z,95822.09
2023-05-19T02:34:48.531Z,95821.03
2023-05-19T02:37:15.966Z,95816.41
2023-05-19T02:39:42.606Z,95816.41
2023-05-19T02:42:09.481Z,95822.91
2023-05-19T02:44:35.957Z,95811.00
2023-05-19T02:47:02.311Z,95811.00
2023-05-19T02:49:30.103Z,95800.16
2023-05-19T02:51:56.636Z,95813.41
2023-05-19T02:54:23.614Z,95812.88
2023-05-19T02:56:49.917Z,95815.88
2023-05-19T02:59:16.233Z,95802.59
2023-05-19T03:01:48.576Z,95805.56
2023-05-19T03:04:14.931Z,95806.13
2023-05-19T03:06:41.800Z,95805.28
2023-05-19T03:09:08.218Z,95807.47
2023-05-19T03:11:35.326Z,95803.66
2023-05-19T03:14:01.656Z,95802.88
2023-05-19T03:16:28.840Z,95809.91
2023-05-19T03:18:56.027Z,95809.91
2023-05-19T03:21:27.892Z,95809.38
2023-05-19T03:23:54.278Z,95808.28
2023-05-19T03:26:22.354Z,95806.63
2023-05-19T03:28:49.312Z,95808.25
2023-05-19T03:31:15.772Z,95805.56
2023-05-19T03:33:42.147Z,95809.09
2023-05-19T03:36:09.299Z,95807.72
2023-05-19T03:38:35.670Z,95800.66
2023-05-19T03:41:01.993Z,95800.94
2023-05-19T03:43:28.404Z,95795.28
2023-05-19T03:45:55.867Z,95794.75
2023-05-19T03:48:22.299Z,95795.28
2023-05-19T03:50:48.756Z,95797.72
2023-05-19T03:53:15.286Z,95796.38
2023-05-19T03:55:41.672Z,95796.66
2023-05-19T03:58:08.038Z,95803.41
2023-05-19T04:00:34.848Z,95798.81
2023-05-19T04:03:02.195Z,95798.53
2023-05-19T04:05:28.905Z,95793.38
2023-05-19T04:07:55.326Z,95796.38
2023-05-19T04:10:21.916Z,95789.34
2023-05-19T04:12:48.233Z,95792.28
2023-05-19T04:15:14.642Z,95792.28
2023-05-19T04:17:41.289Z,95789.31
2023-05-19T04:20:09.347Z,95780.66
2023-05-19T04:22:35.694Z,95789.88
2023-05-19T04:25:03.770Z,95795.28
2023-05-19T04:27:31.258Z,95791.75
2023-05-19T04:29:57.740Z,95789.84
2023-05-19T04:32:24.156Z,95792.03
2023-05-19T04:34:50.561Z,95791.47
2023-05-19T04:37:17.587Z,95796.31
2023-05-19T04:39:44.768Z,95790.09
2023-05-19T04:42:11.290Z,95794.69
2023-05-19T04:44:39.398Z,95792.81
2023-05-19T04:47:07.919Z,95794.66
2023-05-19T04:49:38.170Z,95799.28
2023-05-19T04:52:06.365Z,95791.91
2023-05-19T04:54:34.067Z,95788.38
2023-05-19T04:57:00.566Z,95785.94
2023-05-19T04:59:27.007Z,95786.75
2023-05-19T05:01:53.464Z,95770.41
2023-05-19T05:04:20.909Z,95769.28
2023-05-19T05:06:48.053Z,95764.06
2023-05-19T05:09:14.705Z,95767.00
2023-05-19T05:11:42.626Z,95764.00
2023-05-19T05:14:09.580Z,95766.69
2023-05-19T05:16:36.449Z,95771.06
2023-05-19T05:19:03.574Z,95764.47
2023-05-19T05:21:31.259Z,95757.59
2023-05-19T05:23:58.157Z,95754.31
2023-05-19T05:26:30.083Z,95757.44
2023-05-19T05:28:57.089Z,95750.56
2023-05-19T05:31:23.491Z,95751.44
2023-05-19T05:33:49.998Z,95750.81
2023-05-19T05:36:16.472Z,95751.53
2023-05-19T05:38:42.829Z,95749.38
2023-05-19T05:41:09.156Z,95760.69
2023-05-19T05:43:35.506Z,95763.13
2023-05-19T05:46:02.557Z,95766.25
2023-05-19T05:48:29.528Z,95761.16
2023-05-19T05:50:56.973Z,95757.78
2023-05-19T05:53:25.336Z,95758.75
2023-05-19T05:55:52.984Z,95756.13
2023-05-19T05:58:20.501Z,95751.59
2023-05-19T06:00:47.847Z,95749.22
2023-05-19T06:03:16.319Z,95747.50
2023-05-19T06:05:42.814Z,95748.09
2023-05-19T06:08:09.311Z,95743.16
2023-05-19T06:10:37.943Z,95753.53
2023-05-19T06:13:04.346Z,95757.28
2023-05-19T06:15:30.764Z,95765.25
2023-05-19T06:17:57.439Z,95758.19
2023-05-19T06:20:24.599Z,95752.88
2023-05-19T06:22:50.923Z,95748.72
2023-05-19T06:25:17.421Z,95746.16
2023-05-19T06:27:43.741Z,95751.78
2023-05-19T06:30:10.799Z,95749.25
2023-05-19T06:32:37.235Z,95742.81
2023-05-19T06:35:04.282Z,95747.66
2023-05-19T06:37:31.383Z,95750.06
2023-05-19T06:39:57.696Z,95747.56
2023-05-19T06:42:24.701Z,95742.88
2023-05-19T06:44:51.817Z,95746.94
2023-05-19T06:47:19.003Z,95750.25
2023-05-19T06:49:45.770Z,95744.63
2023-05-19T06:52:12.087Z,95741.56
2023-05-19T06:54:39.148Z,95754.63
2023-05-19T06:57:05.728Z,95753.31
2023-05-19T06:59:32.163Z,95749.19
2023-05-19T07:01:58.608Z,95750.81
2023-05-19T07:04:25.083Z,95751.84
2023-05-19T07:06:51.622Z,95753.09
2023-05-19T07:09:18.016Z,95757.28
2023-05-19T07:11:45.643Z,95746.47
2023-05-19T07:14:12.032Z,95745.66
2023-05-19T07:16:38.426Z,95745.25
2023-05-19T07:19:04.897Z,95739.00
2023-05-19T07:21:31.286Z,95744.50
2023-05-19T07:23:57.685Z,95749.34
2023-05-19T07:26:24.020Z,95738.94
2023-05-19T07:28:51.520Z,95737.91
2023-05-19T07:31:18.040Z,95745.69
2023-05-19T07:33:44.478Z,95744.94
2023-05-19T07:36:10.846Z,95739.75
2023-05-19T07:38:37.221Z,95741.53
2023-05-19T07:41:03.992Z,95737.28
2023-05-19T07:43:30.844Z,95732.88
2023-05-19T07:45:57.958Z,95718.63
2023-05-19T07:48:25.207Z,95726.44
2023-05-19T07:50:52.043Z,95726.38
2023-05-19T07:53:18.850Z,95727.56
2023-05-19T07:55:46.714Z,95732.81
2023-05-19T07:58:13.170Z,95729.41
2023-05-19T08:00:40.370Z,95738.88
2023-05-19T08:03:07.546Z,95727.16
2023-05-19T08:05:34.466Z,95736.94
2023-05-19T08:08:01.087Z,95740.38
2023-05-19T08:10:27.685Z,95726.28
2023-05-19T08:12:54.041Z,95736.28
2023-05-19T08:15:21.099Z,95730.84
2023-05-19T08:17:47.473Z,95735.75
2023-05-19T08:20:14.529Z,95733.88
2023-05-19T08:22:40.868Z,95733.50
2023-05-19T08:25:08.861Z,95732.41
2023-05-19T08:27:35.329Z,95726.28
2023-05-19T08:30:01.673Z,95726.78
2023-05-19T08:32:28.110Z,95733.84
2023-05-19T08:34:54.462Z,95739.78
2023-05-19T08:37:21.464Z,95732.06
2023-05-19T08:39:47.865Z,95734.16
2023-05-19T08:42:14.545Z,95732.13
2023-05-19T08:44:42.209Z,95733.84
2023-05-19T08:47:13.036Z,95736.50
2023-05-19T08:49:44.361Z,95730.31
2023-05-19T08:52:19.136Z,95741.00
2023-05-19T08:54:53.715Z,95744.06
2023-05-19T08:57:22.744Z,95739.69
2023-05-19T08:59:50.680Z,95737.34
2023-05-19T09:02:19.413Z,95732.41
2023-05-19T09:04:47.316Z,95730.78
2023-05-19T09:07:14.148Z,95726.25
2023-05-19T09:09:42.919Z,95729.97
2023-05-19T09:12:11.017Z,95728.66
2023-05-19T09:14:37.659Z,95728.41
2023-05-19T09:17:04.588Z,95720.72
2023-05-19T09:19:31.126Z,95721.25
2023-05-19T09:21:59.224Z,95721.50
2023-05-19T09:24:25.963Z,95729.81
2023-05-19T09:26:57.743Z,95713.31
2023-05-19T09:29:26.279Z,95722.53
2023-05-19T09:31:54.140Z,95719.38
2023-05-19T09:34:21.507Z,95724.97
2023-05-19T09:36:49.024Z,95717.94
2023-05-19T09:39:16.063Z,95714.19
2023-05-19T09:41:42.662Z,95705.75
2023-05-19T09:44:13.074Z,95708.75
2023-05-19T09:46:47.149Z,95705.94
2023-05-19T09:49:13.966Z,95712.34
2023-05-19T09:51:40.911Z,95707.31
2023-05-19T09:54:09.339Z,95706.81
2023-05-19T09:56:36.126Z,95707.22
2023-05-19T09:59:05.168Z,95705.44
2023-05-19T10:01:32.791Z,95713.59
2023-05-19T10:04:03.083Z,95706.34
2023-05-19T10:06:31.533Z,95704.38
2023-05-19T10:08:59.550Z,95701.06
2023-05-19T10:11:27.227Z,95700.69
2023-05-19T10:13:53.671Z,95704.31
2023-05-19T10:16:22.522Z,95707.16
2023-05-19T10:18:51.300Z,95720.22
2023-05-19T10:21:18.294Z,95716.47
2023-05-19T10:23:45.047Z,95707.34
2023-05-19T10:26:12.939Z,95707.97
2023-05-19T10:28:42.563Z,95703.47
2023-05-19T10:31:14.864Z,95707.53
2023-05-19T10:33:56.505Z,95702.69
2023-05-19T10:36:38.797Z,95704.03
2023-05-19T10:39:12.555Z,95699.25
2023-05-19T10:41:46.978Z,95707.34
2023-05-19T10:44:27.754Z,95702.19
2023-05-19T10:46:56.823Z,95689.94
2023-05-19T10:49:23.724Z,95700.38
2023-05-19T10:51:54.604Z,95697.47
2023-05-19T10:54:40.047Z,95688.22
2023-05-19T10:57:07.572Z,95690.25
2023-05-19T10:59:37.129Z,95688.31
2023-05-19T11:02:04.353Z,95694.41
2023-05-19T11:04:48.895Z,95688.97
2023-05-19T11:07:19.343Z,95704.78
2023-05-19T11:09:50.216Z,95701.88
2023-05-19T11:12:20.479Z,95692.81
2023-05-19T11:14:46.884Z,95692.91
2023-05-19T11:17:15.395Z,95694.31
2023-05-19T11:19:53.404Z,95699.28
2023-05-19T11:22:23.230Z,95694.41
2023-05-19T11:24:53.525Z,95682.22
2023-05-19T11:27:22.416Z,95671.81
2023-05-19T11:29:49.434Z,95677.69
2023-05-19T11:32:16.527Z,95679.25
2023-05-19T11:34:44.322Z,95672.59
2023-05-19T11:37:11.473Z,95681.75
2023-05-19T11:39:39.280Z,95684.13
2023-05-19T11:42:05.830Z,95682.31
2023-05-19T11:44:32.190Z,95685.56
2023-05-19T11:46:59.418Z,95687.03
2023-05-19T11:49:27.720Z,95685.84
2023-05-19T11:51:54.449Z,95680.00
2023-05-19T11:54:22.375Z,95687.25
2023-05-19T11:56:53.263Z,95685.91
2023-05-19T11:59:32.794Z,95696.75
2023-05-19T12:02:15.889Z,95690.31
2023-05-19T12:04:42.503Z,95700.28
2023-05-19T12:07:11.282Z,95697.16
2023-05-19T12:09:37.843Z,95702.81
2023-05-19T12:12:05.543Z,95699.59
2023-05-19T12:14:31.956Z,95703.22
2023-05-19T12:16:58.744Z,95697.97
2023-05-19T12:19:26.141Z,95694.41
2023-05-19T12:21:53.413Z,95685.97
2023-05-19T12:24:20.196Z,95698.72
2023-05-19T12:26:46.546Z,95700.56
2023-05-19T12:29:13.629Z,95692.88
2023-05-19T12:31:40.122Z,95685.31
2023-05-19T12:34:06.604Z,95685.31
2023-05-19T12:36:33.086Z,95677.38
2023-05-19T12:39:00.068Z,95692.81
2023-05-19T12:41:26.948Z,95688.53
2023-05-19T12:43:54.609Z,95689.25
2023-05-19T12:46:22.172Z,95687.25
2023-05-19T12:48:48.988Z,95680.44
2023-05-19T12:51:19.182Z,95681.94
2023-05-19T12:53:46.320Z,95676.97
2023-05-19T12:56:13.780Z,95663.47
2023-05-19T12:58:40.567Z,95676.66
2023-05-19T13:01:07.981Z,95676.28
2023-05-19T13:03:42.564Z,95676.00
2023-05-19T13:06:09.605Z,95674.00
2023-05-19T13:08:37.117Z,95682.56
2023-05-19T13:11:03.449Z,95676.44
2023-05-19T13:13:29.807Z,95679.13
2023-05-19T13:15:56.202Z,95672.06
2023-05-19T13:18:22.523Z,95668.41
2023-05-19T13:20:50.676Z,95662.69
2023-05-19T13:23:19.809Z,95651.28
2023-05-19T13:25:46.163Z,95659.19
2023-05-19T13:28:12.551Z,95659.16
2023-05-19T13:30:40.808Z,95649.97
2023-05-19T13:33:07.538Z,95652.72
2023-05-19T13:35:36.363Z,95655.09
2023-05-19T13:38:03.958Z,95646.81
2023-05-19T13:40:32.570Z,95643.78
2023-05-19T13:42:59.033Z,95646.31
2023-05-19T13:45:25.599Z,95637.41
2023-05-19T13:47:51.936Z,95639.66
2023-05-19T13:50:18.479Z,95632.25
2023-05-19T13:52:44.843Z,95633.78
2023-05-19T13:55:11.872Z,95631.50
2023-05-19T13:57:38.227Z,95634.16
2023-05-19T14:00:05.827Z,95624.81
2023-05-19T14:02:33.251Z,95626.09
2023-05-19T14:04:59.718Z,95619.50
2023-05-19T14:07:26.477Z,95618.34
2023-05-19T14:09:52.904Z,95626.09
2023-05-19T14:12:23.154Z,95618.97
2023-05-19T14:14:51.687Z,95620.28
2023-05-19T14:17:18.027Z,95611.59
2023-05-19T14:19:44.368Z,95619.84
2023-05-19T14:22:12.622Z,95618.13
2023-05-19T14:24:38.961Z,95618.94
2023-05-19T14:27:05.694Z,95622.94
2023-05-19T14:29:33.172Z,95620.91
2023-05-19T14:31:59.759Z,95618.66
2023-05-19T14:34:28.131Z,95613.84
2023-05-19T14:36:54.488Z,95613.38
2023-05-19T14:39:20.834Z,95612.41
2023-05-19T14:41:48.677Z,95613.84
2023-05-19T14:44:15.077Z,95618.69
2023-05-19T14:46:42.101Z,95614.16
2023-05-19T14:49:08.466Z,95614.97
2023-05-19T14:51:34.857Z,95617.53
2023-05-19T14:54:03.055Z,95622.72
2023-05-19T14:56:32.205Z,95621.75
2023-05-19T14:58:58.596Z,95613.84
2023-05-19T15:01:25.194Z,95610.47
2023-05-19T15:03:52.243Z,95616.75
2023-05-19T15:06:18.686Z,95608.88
2023-05-19T15:08:45.230Z,95606.25
2023-05-19T15:11:11.633Z,95611.09
2023-05-19T15:13:38.054Z,95613.53
2023-05-19T15:18:42.006Z,95602.88
2023-05-19T15:21:09.022Z,95609.97
2023-05-19T15:23:35.435Z,95600.44
2023-05-19T15:26:03.654Z,95595.13
2023-05-19T15:28:32.372Z,95585.72
2023-05-19T15:31:02.333Z,95590.44
2023-05-19T15:33:28.812Z,95592.81
2023-05-19T15:35:56.514Z,95583.66
2023-05-19T15:38:23.494Z,95593.56
2023-05-19T15:40:49.883Z,95579.09
2023-05-19T15:43:16.766Z,95588.47
2023-05-19T15:45:43.151Z,95577.69
2023-05-19T15:48:09.504Z,95579.03
2023-05-19T15:50:38.340Z,95574.16
2023-05-19T15:53:08.389Z,95566.13
2023-05-19T15:55:36.498Z,95561.78
2023-05-19T15:58:08.093Z,95561.81
2023-05-19T16:00:39.213Z,95562.63
2023-05-19T16:03:05.763Z,95565.81
2023-05-19T16:05:32.288Z,95563.00
2023-05-19T16:07:58.733Z,95552.72
2023-05-19T16:10:25.185Z,95560.69
2023-05-19T16:12:52.195Z,95554.09
2023-05-19T16:15:18.577Z,95559.88
2023-05-19T16:17:44.947Z,95558.09
2023-05-19T16:20:11.807Z,95553.25
2023-05-19T16:22:41.146Z,95541.13
2023-05-19T16:25:08.158Z,95542.03
2023-05-19T16:27:34.448Z,95543.56
2023-05-19T16:30:02.480Z,95543.66
2023-05-19T16:32:28.847Z,95550.41
2023-05-19T16:34:55.389Z,95547.53
2023-05-19T16:37:21.732Z,95549.53
2023-05-19T16:39:48.083Z,95546.00
2023-05-19T16:42:14.427Z,95539.94
2023-05-19T16:44:41.782Z,95533.19
2023-05-19T16:47:08.925Z,95533.84
2023-05-19T16:49:35.242Z,95528.22
2023-05-19T16:52:01.601Z,95534.34
2023-05-19T16:54:28.351Z,95532.94
2023-05-19T16:56:54.711Z,95528.22
2023-05-19T16:59:21.060Z,95524.03
2023-05-19T17:01:47.474Z,95524.59
2023-05-19T17:04:15.080Z,95524.44
2023-05-19T17:06:41.446Z,95525.88
2023-05-19T17:09:07.906Z,95518.28
2023-05-19T17:11:34.358Z,95524.06
2023-05-19T17:14:01.335Z,95525.94
2023-05-19T17:16:27.650Z,95512.09
2023-05-19T17:18:54.093Z,95526.88
2023-05-19T17:21:21.076Z,95523.81
2023-05-19T17:23:47.405Z,95523.94
2023-05-19T17:26:15.085Z,95528.91
2023-05-19T17:28:41.408Z,95529.03
2023-05-19T17:31:11.529Z,95533.66
2023-05-19T17:33:37.950Z,95531.09
2023-05-19T17:36:05.406Z,95529.75
2023-05-19T17:38:32.503Z,95535.72
2023-05-19T17:40:59.095Z,95528.19
2023-05-19T17:43:25.592Z,95533.97
2023-05-19T17:45:51.980Z,95523.72
2023-05-19T17:48:18.464Z,95527.09
2023-05-19T17:50:46.278Z,95522.03
2023-05-19T17:53:13.180Z,95513.72
2023-05-19T17:55:40.763Z,95516.88
2023-05-19T17:58:07.822Z,95519.13
2023-05-19T18:00:34.765Z,95515.41
2023-05-19T18:03:03.793Z,95512.34
2023-05-19T18:05:55.294Z,95518.41
2023-05-19T18:08:22.216Z,95525.13
2023-05-19T18:10:56.756Z,95531.88
2023-05-19T18:13:32.469Z,95530.09
2023-05-19T18:16:05.296Z,95533.97
2023-05-19T18:18:56.339Z,95533.00
2023-05-19T18:21:23.661Z,95529.38
2023-05-19T18:23:55.969Z,95533.72
2023-05-19T18:26:23.012Z,95539.72
2023-05-19T18:28:49.395Z,95539.03
2023-05-19T18:31:21.663Z,95534.16
2023-05-19T18:33:54.172Z,95532.09
2023-05-19T18:36:20.615Z,95531.38
2023-05-19T18:39:08.319Z,95528.66
2023-05-19T18:41:41.993Z,95534.41
2023-05-19T18:44:08.337Z,95539.78
2023-05-19T18:46:37.736Z,95536.22
2023-05-19T18:49:11.723Z,95536.56
2023-05-19T18:51:48.983Z,95537.28
2023-05-19T18:57:30.239Z,95549.41
2023-05-19T18:59:59.570Z,95544.75
2023-05-19T19:02:43.082Z,95550.59
2023-05-19T19:05:09.784Z,95549.59
2023-05-19T19:07:43.881Z,95542.81
2023-05-19T19:10:10.988Z,95539.94
2023-05-19T19:12:44.133Z,95558.78
2023-05-19T19:15:21.051Z,95547.31
2023-05-19T19:17:50.665Z,95556.47
2023-05-19T19:20:22.877Z,95556.06
2023-05-19T19:22:55.103Z,95565.34
2023-05-19T19:25:23.529Z,95561.50
2023-05-19T19:30:37.777Z,95568.47
2023-05-19T19:33:11.555Z,95569.59
2023-05-19T19:35:48.493Z,95568.38
2023-05-19T19:38:20.665Z,95571.22
2023-05-19T19:40:53.212Z,95568.56
2023-05-19T19:43:32.558Z,95570.00
2023-05-19T19:46:06.279Z,95566.25
2023-05-19T19:48:38.780Z,95572.00
2023-05-19T19:51:24.890Z,95561.09
2023-05-19T19:54:11.211Z,95561.69
2023-05-19T20:02:14.041Z,95560.50
2023-05-19T20:04:40.565Z,95557.28
2023-05-19T20:07:07.020Z,95549.19
2023-05-19T20:09:33.447Z,95553.66
2023-05-19T20:11:59.911Z,95550.00
2023-05-19T20:14:26.416Z,95558.09
2023-05-19T20:16:52.895Z,95552.13
2023-05-19T20:19:20.345Z,95552.13
2023-05-19T20:21:46.737Z,95553.31
2023-05-19T20:24:13.149Z,95559.69
2023-05-19T20:26:39.505Z,95551.53
2023-05-19T20:29:05.883Z,95550.00
2023-05-19T20:31:34.791Z,95550.88
2023-05-19T20:34:01.890Z,95542.91
2023-05-19T20:36:29.233Z,95541.22
2023-05-19T20:38:55.753Z,95534.94
2023-05-19T20:41:22.821Z,95535.94
2023-05-19T20:43:49.345Z,95541.22
2023-05-19T20:46:15.869Z,95536.88
2023-05-19T20:48:42.299Z,95544.03
2023-05-19T20:51:08.660Z,95537.97
2023-05-19T20:53:38.394Z,95543.13
2023-05-19T20:56:06.076Z,95532.22
2023-05-19T20:58:33.693Z,95534.63
2023-05-19T21:01:00.248Z,95539.59
2023-05-19T21:03:27.668Z,95535.75
2023-05-19T21:05:54.519Z,95540.41
2023-05-19T21:08:20.946Z,95534.53
2023-05-19T21:10:48.248Z,95543.59
2023-05-19T21:13:15.302Z,95548.22
2023-05-19T21:15:44.477Z,95543.72
2023-05-19T21:18:11.160Z,95540.47
2023-05-19T21:20:37.733Z,95543.50
2023-05-19T21:23:04.206Z,95542.91
2023-05-19T21:25:30.800Z,95550.34
2023-05-19T21:27:57.844Z,95550.94
2023-05-19T21:30:24.385Z,95555.28
2023-05-19T21:32:50.977Z,95549.31
2023-05-19T21:35:17.334Z,95541.22
2023-05-19T21:37:43.736Z,95534.16
2023-05-19T21:40:11.028Z,95541.84
2023-05-19T21:42:37.390Z,95541.34
2023-05-19T21:45:05.831Z,95538.63
2023-05-19T21:47:34.608Z,95538.63
2023-05-19T21:50:00.977Z,95543.25
2023-05-19T21:52:27.325Z,95540.81
2023-05-19T21:54:53.727Z,95541.03
2023-05-19T21:57:20.073Z,95546.19
2023-05-19T21:59:46.493Z,95539.31
2023-05-19T22:02:13.576Z,95537.09
2023-05-19T22:04:41.754Z,95539.81
2023-05-19T22:07:08.141Z,95539.44
2023-05-19T22:09:34.523Z,95521.69
2023-05-19T22:12:00.890Z,95520.00
2023-05-19T22:14:30.260Z,95518.03
2023-05-19T22:16:56.688Z,95522.00
2023-05-19T22:19:25.532Z,95524.00
2023-05-19T22:22:01.598Z,95525.09
2023-05-19T22:24:32.312Z,95519.94
2023-05-19T22:26:58.714Z,95518.25
2023-05-19T22:29:25.080Z,95516.75
2023-05-19T22:31:51.499Z,95511.41
2023-05-19T22:34:17.854Z,95508.38
2023-05-19T22:36:45.501Z,95504.16
2023-05-19T22:39:12.060Z,95514.13
2023-05-19T22:41:38.570Z,95506.59
2023-05-19T22:44:05.018Z,95506.75
2023-05-19T22:46:31.446Z,95506.66
2023-05-19T22:48:57.849Z,95505.06
2023-05-19T22:51:24.224Z,95503.66
2023-05-19T22:57:55.560Z,95508.28
2023-05-19T23:00:22.060Z,95506.06
2023-05-19T23:02:48.420Z,95502.84
2023-05-19T23:05:14.935Z,95501.22
2023-05-19T23:07:41.316Z,95498.78
2023-05-19T23:10:08.443Z,95488.50
2023-05-19T23:12:34.941Z,95493.56
2023-05-19T23:15:02.072Z,95500.91
2023-05-19T23:17:28.459Z,95501.22
2023-05-19T23:19:55.002Z,95496.38
2023-05-19T23:22:21.355Z,95487.16
2023-05-19T23:24:47.742Z,95490.81
2023-05-19T23:27:14.090Z,95487.59
2023-05-19T23:29:40.506Z,95478.09
2023-05-19T23:32:07.871Z,95474.88
2023-05-19T23:34:34.281Z,95468.09
2023-05-19T23:37:00.620Z,95477.69
2023-05-19T23:39:26.980Z,95473.56
2023-05-19T23:41:53.348Z,95472.84
2023-05-19T23:44:19.678Z,95470.22
2023-05-19T23:46:46.089Z,95462.66
2023-05-19T23:49:13.733Z,95459.72
2023-05-19T23:51:40.067Z,95458.09
2023-05-19T23:54:06.410Z,95462.44
2023-05-19T23:56:32.803Z,95458.41
2023-05-19T23:58:59.141Z,95461.94
